createdAt,value
2019-01-29T00:02:12.330Z,9.43
2019-01-29T00:04:40.591Z,8.30
2019-01-29T00:07:08.844Z,8.63
2019-01-29T00:09:37.136Z,7.65
2019-01-29T00:12:05.390Z,9.33
2019-01-29T00:14:33.646Z,8.53
2019-01-29T00:17:01.907Z,6.97
2019-01-29T00:19:30.161Z,8.20
2019-01-29T00:21:58.423Z,10.83
2019-01-29T00:24:26.708Z,10.00
2019-01-29T00:26:54.984Z,6.53
2019-01-29T00:29:23.245Z,8.00
2019-01-29T00:31:51.516Z,9.30
2019-01-29T00:34:19.778Z,6.97
2019-01-29T00:36:48.052Z,8.13
2019-01-29T00:39:16.322Z,8.60
2019-01-29T00:41:45.230Z,7.35
2019-01-29T00:44:13.487Z,9.27
2019-01-29T00:46:41.746Z,10.15
2019-01-29T00:49:10.006Z,7.53
2019-01-29T00:51:38.282Z,8.48
2019-01-29T00:54:06.717Z,7.53
2019-01-29T00:56:34.975Z,7.33
2019-01-29T00:59:03.234Z,8.43
2019-01-29T01:01:31.512Z,8.63
2019-01-29T01:03:59.770Z,12.93
2019-01-29T01:06:28.033Z,7.97
2019-01-29T01:08:56.313Z,11.70
2019-01-29T01:11:24.568Z,8.67
2019-01-29T01:13:52.835Z,15.35
2019-01-29T01:16:21.163Z,7.92
2019-01-29T01:18:49.431Z,9.83
2019-01-29T01:21:17.688Z,9.13
2019-01-29T01:23:45.957Z,10.07
2019-01-29T01:26:14.228Z,8.80
2019-01-29T01:28:42.495Z,10.37
2019-01-29T01:31:10.752Z,9.20
2019-01-29T01:33:39.275Z,10.93
2019-01-29T01:36:07.534Z,9.80
2019-01-29T01:38:35.816Z,15.50
2019-01-29T01:41:04.080Z,15.78
2019-01-29T01:43:32.356Z,10.30
2019-01-29T01:46:00.621Z,11.27
2019-01-29T01:48:28.893Z,11.87
2019-01-29T01:50:57.257Z,11.30
2019-01-29T01:53:25.549Z,13.20
2019-01-29T01:55:53.821Z,9.30
2019-01-29T01:58:22.071Z,10.05
2019-01-29T02:00:50.334Z,9.23
2019-01-29T02:03:18.603Z,11.60
2019-01-29T02:05:46.870Z,10.40
2019-01-29T02:08:15.141Z,9.90
2019-01-29T02:10:43.401Z,10.13
2019-01-29T02:13:11.688Z,13.70
2019-01-29T02:15:39.953Z,13.77
2019-01-29T02:18:08.225Z,14.90
2019-01-29T02:20:36.497Z,11.63
2019-01-29T02:23:08.037Z,13.23
2019-01-29T02:25:34.825Z,15.73
2019-01-29T02:28:03.086Z,13.83
2019-01-29T02:30:31.354Z,11.63
2019-01-29T02:32:59.626Z,14.07
2019-01-29T02:35:27.882Z,15.03
2019-01-29T02:37:56.162Z,13.68
2019-01-29T02:40:26.264Z,15.23
2019-01-29T02:42:54.534Z,15.98
2019-01-29T02:45:23.363Z,14.00
2019-01-29T02:47:51.614Z,13.58
2019-01-29T02:50:19.963Z,16.77
2019-01-29T02:52:48.224Z,15.77
2019-01-29T02:55:17.152Z,12.47
2019-01-29T02:57:45.490Z,13.50
2019-01-29T03:00:19.194Z,10.10
2019-01-29T03:02:47.635Z,18.17
2019-01-29T03:05:17.045Z,14.83
2019-01-29T03:07:45.786Z,18.17
2019-01-29T03:10:16.878Z,15.10
2019-01-29T03:12:45.150Z,16.77
2019-01-29T03:15:22.225Z,11.87
2019-01-29T03:17:50.489Z,12.00
2019-01-29T03:20:18.740Z,8.37
2019-01-29T03:22:47.008Z,16.20
2019-01-29T03:25:15.270Z,13.53
2019-01-29T03:27:43.532Z,14.57
2019-01-29T03:30:14.332Z,10.97
2019-01-29T03:32:42.612Z,11.00
2019-01-29T03:35:11.150Z,11.80
2019-01-29T03:37:39.448Z,9.83
2019-01-29T03:40:10.526Z,10.77
2019-01-29T03:42:40.892Z,10.65
2019-01-29T03:45:11.610Z,14.30
2019-01-29T03:47:39.888Z,12.68
2019-01-29T03:50:10.610Z,13.27
2019-01-29T03:52:38.893Z,11.93
2019-01-29T03:55:08.506Z,10.13
2019-01-29T03:57:36.753Z,13.60
2019-01-29T04:00:11.415Z,5.55
2019-01-29T04:02:39.699Z,6.47
2019-01-29T04:05:08.040Z,12.03
2019-01-29T04:07:36.292Z,8.65
2019-01-29T04:10:07.250Z,9.23
2019-01-29T04:12:35.523Z,7.97
2019-01-29T04:15:05.125Z,5.70
2019-01-29T04:17:33.476Z,6.97
2019-01-29T04:20:01.891Z,7.87
2019-01-29T04:22:30.139Z,9.27
2019-01-29T04:24:58.394Z,6.60
2019-01-29T04:27:26.670Z,11.87
2019-01-29T04:29:54.942Z,9.18
2019-01-29T04:32:23.250Z,7.93
2019-01-29T04:34:51.462Z,7.27
2019-01-29T04:37:19.720Z,9.47
2019-01-29T04:39:47.990Z,12.03
2019-01-29T04:42:16.253Z,5.03
2019-01-29T04:44:44.523Z,8.67
2019-01-29T04:47:12.794Z,5.12
2019-01-29T04:49:41.077Z,6.33
2019-01-29T04:52:09.347Z,10.23
2019-01-29T04:54:37.625Z,7.13
2019-01-29T04:57:05.901Z,5.77
2019-01-29T04:59:34.169Z,5.33
2019-01-29T05:02:02.508Z,14.23
2019-01-29T05:04:30.815Z,4.30
2019-01-29T05:06:59.077Z,4.87
2019-01-29T05:09:29.320Z,7.23
2019-01-29T05:11:57.589Z,9.23
2019-01-29T05:14:25.850Z,7.73
2019-01-29T05:16:54.143Z,11.33
2019-01-29T05:19:22.403Z,9.37
2019-01-29T05:21:50.697Z,9.23
2019-01-29T05:24:18.977Z,9.23
2019-01-29T05:26:47.235Z,6.43
2019-01-29T05:29:15.517Z,13.27
2019-01-29T05:31:43.837Z,7.70
2019-01-29T05:34:12.088Z,11.37
2019-01-29T05:36:41.008Z,12.55
2019-01-29T05:39:09.455Z,18.10
2019-01-29T05:41:37.763Z,15.58
2019-01-29T05:44:06.025Z,15.13
2019-01-29T05:46:34.320Z,11.50
2019-01-29T05:49:02.619Z,8.68
2019-01-29T05:51:30.950Z,13.18
2019-01-29T05:53:59.257Z,12.98
2019-01-29T05:56:27.591Z,11.30
2019-01-29T05:58:55.879Z,12.20
2019-01-29T06:01:24.159Z,13.03
2019-01-29T06:03:52.486Z,12.33
2019-01-29T06:06:20.793Z,9.13
2019-01-29T06:08:49.071Z,10.90
2019-01-29T06:11:17.343Z,13.50
2019-01-29T06:13:47.206Z,10.32
2019-01-29T06:16:15.508Z,13.30
2019-01-29T06:18:43.802Z,13.93
2019-01-29T06:21:12.103Z,10.43
2019-01-29T06:23:40.469Z,16.50
2019-01-29T06:26:08.734Z,11.10
2019-01-29T06:28:37.017Z,18.12
2019-01-29T06:31:05.292Z,15.60
2019-01-29T06:33:33.563Z,11.50
2019-01-29T06:36:01.840Z,13.10
2019-01-29T06:38:30.155Z,12.90
2019-01-29T06:40:58.422Z,13.03
2019-01-29T06:43:26.713Z,13.27
2019-01-29T06:45:55.003Z,14.65
2019-01-29T06:48:23.273Z,17.62
2019-01-29T06:50:51.558Z,13.10
2019-01-29T06:53:19.847Z,12.33
2019-01-29T06:55:48.123Z,20.37
2019-01-29T06:58:16.392Z,10.33
2019-01-29T07:00:44.664Z,14.30
2019-01-29T07:03:12.953Z,14.27
2019-01-29T07:05:41.231Z,11.18
2019-01-29T07:08:09.520Z,12.10
2019-01-29T07:10:37.791Z,11.90
2019-01-29T07:13:06.071Z,15.60
2019-01-29T07:15:51.561Z,16.07
2019-01-29T07:18:21.493Z,11.53
2019-01-29T07:20:49.760Z,11.10
2019-01-29T07:23:18.023Z,12.78
2019-01-29T07:25:47.328Z,12.00
2019-01-29T07:28:15.587Z,16.65
2019-01-29T07:30:43.896Z,14.55
2019-01-29T07:33:12.165Z,11.33
2019-01-29T07:35:40.407Z,13.32
2019-01-29T07:38:08.678Z,20.27
2019-01-29T07:40:36.977Z,16.83
2019-01-29T07:43:05.254Z,14.83
2019-01-29T07:45:33.501Z,19.63
2019-01-29T07:48:01.754Z,18.23
2019-01-29T07:50:30.006Z,12.93
2019-01-29T07:52:58.292Z,18.63
2019-01-29T07:55:26.537Z,17.23
2019-01-29T07:57:54.806Z,18.90
2019-01-29T08:00:23.126Z,25.20
2019-01-29T08:02:51.393Z,16.70
2019-01-29T08:05:20.706Z,20.37
2019-01-29T08:07:49.105Z,15.25
2019-01-29T08:10:17.751Z,15.10
2019-01-29T08:12:46.038Z,13.20
2019-01-29T08:15:21.311Z,14.50
2019-01-29T08:17:49.724Z,15.08
2019-01-29T08:20:18.376Z,15.90
2019-01-29T08:22:46.650Z,16.23
2019-01-29T08:25:14.986Z,13.98
2019-01-29T08:27:43.255Z,14.43
2019-01-29T08:30:18.657Z,20.67
2019-01-29T08:32:46.963Z,12.93
2019-01-29T08:35:16.767Z,14.17
2019-01-29T08:37:45.046Z,13.57
2019-01-29T08:40:17.247Z,12.30
2019-01-29T08:42:45.615Z,13.90
2019-01-29T08:45:18.019Z,12.43
2019-01-29T08:47:46.355Z,11.03
2019-01-29T08:50:20.278Z,15.20
2019-01-29T08:52:48.542Z,11.60
2019-01-29T08:55:16.827Z,21.93
2019-01-29T08:57:45.093Z,13.78
2019-01-29T09:00:16.066Z,12.70
2019-01-29T09:02:44.368Z,11.25
2019-01-29T09:05:12.694Z,12.63
2019-01-29T09:07:40.956Z,13.57
2019-01-29T09:10:12.401Z,12.00
2019-01-29T09:12:40.656Z,12.70
2019-01-29T09:15:11.932Z,10.73
2019-01-29T09:17:40.210Z,10.90
2019-01-29T09:20:11.414Z,13.37
2019-01-29T09:22:39.766Z,12.07
2019-01-29T09:25:19.166Z,9.40
2019-01-29T09:27:40.831Z,10.30
2019-01-29T09:30:17.193Z,13.30
2019-01-29T09:32:45.539Z,9.97
2019-01-29T09:35:13.889Z,11.00
2019-01-29T09:37:42.446Z,11.27
2019-01-29T09:40:16.611Z,11.40
2019-01-29T09:42:44.907Z,17.80
2019-01-29T09:45:15.413Z,12.90
2019-01-29T09:47:43.945Z,11.03
2019-01-29T09:50:15.359Z,11.40
2019-01-29T09:52:43.639Z,9.20
2019-01-29T09:55:14.471Z,13.60
2019-01-29T09:57:42.733Z,17.03
2019-01-29T10:00:21.585Z,14.40
2019-01-29T10:02:50.007Z,16.50
2019-01-29T10:05:18.270Z,13.38
2019-01-29T10:07:46.579Z,13.62
2019-01-29T10:10:14.977Z,14.30
2019-01-29T10:12:43.269Z,14.68
2019-01-29T10:15:20.040Z,15.58
2019-01-29T10:17:48.541Z,14.97
2019-01-29T10:20:16.888Z,19.33
2019-01-29T10:22:45.183Z,17.12
2019-01-29T10:25:14.588Z,19.43
2019-01-29T10:27:42.866Z,17.33
2019-01-29T10:30:13.396Z,19.17
2019-01-29T10:32:41.674Z,19.35
2019-01-29T10:35:12.881Z,24.87
2019-01-29T10:37:41.431Z,21.63
2019-01-29T10:40:12.737Z,21.20
2019-01-29T10:42:41.016Z,25.17
2019-01-29T10:45:12.119Z,23.80
2019-01-29T10:47:40.471Z,20.00
2019-01-29T10:50:17.349Z,19.47
2019-01-29T10:52:45.623Z,21.23
2019-01-29T10:55:13.961Z,16.33
2019-01-29T10:57:42.322Z,14.77
2019-01-29T11:00:13.773Z,19.20
2019-01-29T11:02:42.052Z,21.83
2019-01-29T11:05:12.963Z,13.20
2019-01-29T11:07:41.246Z,16.10
2019-01-29T11:10:12.340Z,9.80
2019-01-29T11:12:40.685Z,16.70
2019-01-29T11:15:12.251Z,9.73
2019-01-29T11:17:40.530Z,10.90
2019-01-29T11:20:11.852Z,8.83
2019-01-29T11:22:40.181Z,9.90
2019-01-29T11:25:11.791Z,9.43
2019-01-29T11:27:40.054Z,8.95
2019-01-29T11:30:11.424Z,11.10
2019-01-29T11:32:39.687Z,15.68
2019-01-29T11:35:10.416Z,7.42
2019-01-29T11:37:38.669Z,6.90
2019-01-29T11:40:10.339Z,10.47
2019-01-29T11:42:38.627Z,9.80
2019-01-29T11:45:12.556Z,7.90
2019-01-29T11:47:40.821Z,11.53
2019-01-29T11:50:10.253Z,10.73
2019-01-29T11:52:38.502Z,8.30
2019-01-29T11:55:09.714Z,7.60
2019-01-29T11:57:37.995Z,7.75
2019-01-29T12:00:12.096Z,10.63
2019-01-29T12:02:40.378Z,6.72
2019-01-29T12:05:08.701Z,8.83
2019-01-29T12:07:36.970Z,5.90
2019-01-29T12:10:08.285Z,6.33
2019-01-29T12:12:36.525Z,8.00
2019-01-29T12:15:13.848Z,8.48
2019-01-29T12:17:42.115Z,4.40
2019-01-29T12:20:13.217Z,6.80
2019-01-29T12:22:41.469Z,9.00
2019-01-29T12:25:10.117Z,10.13
2019-01-29T12:27:38.390Z,4.37
2019-01-29T12:30:15.301Z,9.37
2019-01-29T12:32:43.546Z,7.70
2019-01-29T12:35:11.976Z,10.73
2019-01-29T12:37:40.263Z,6.72
2019-01-29T12:40:11.072Z,10.32
2019-01-29T12:42:39.407Z,7.10
2019-01-29T12:45:12.544Z,7.87
2019-01-29T12:47:40.938Z,9.18
2019-01-29T12:50:18.087Z,10.57
2019-01-29T12:52:54.047Z,7.90
2019-01-29T12:55:22.384Z,8.10
2019-01-29T12:57:50.662Z,12.50
2019-01-29T13:00:20.159Z,10.33
2019-01-29T13:02:48.436Z,8.73
2019-01-29T13:05:17.059Z,6.13
2019-01-29T15:36:11.527Z,18.17
2019-01-29T15:38:39.816Z,15.37
2019-01-29T15:41:08.150Z,13.70
2019-01-29T15:43:36.430Z,19.97
2019-01-29T15:46:04.976Z,16.70
2019-01-29T15:48:33.258Z,16.17
2019-01-29T15:51:01.583Z,13.50
2019-01-29T15:53:29.843Z,19.82
2019-01-29T15:55:58.136Z,16.20
2019-01-29T15:58:27.290Z,14.65
2019-01-29T16:00:55.570Z,13.28
2019-01-29T16:03:23.851Z,14.13
2019-01-29T16:05:52.195Z,14.53
2019-01-29T16:08:20.525Z,15.68
2019-01-29T16:10:48.827Z,13.40
2019-01-29T16:13:17.074Z,17.20
2019-01-29T16:15:45.336Z,13.20
2019-01-29T16:18:14.272Z,16.10
2019-01-29T16:20:42.572Z,15.10
2019-01-29T16:23:10.845Z,16.47
2019-01-29T16:25:39.373Z,18.77
2019-01-29T16:28:07.636Z,15.70
2019-01-29T16:30:37.198Z,15.67
2019-01-29T16:33:05.988Z,18.73
2019-01-29T16:35:35.941Z,14.03
2019-01-29T16:38:05.538Z,15.57
2019-01-29T16:40:37.110Z,19.73
2019-01-29T16:43:05.386Z,16.43
2019-01-29T16:45:35.178Z,15.00
2019-01-29T16:48:04.414Z,16.87
2019-01-29T16:50:32.701Z,15.45
2019-01-29T16:53:00.960Z,17.20
2019-01-29T16:55:31.633Z,16.10
2019-01-29T16:57:59.533Z,14.30
2019-01-29T17:00:32.159Z,16.37
2019-01-29T17:03:00.417Z,16.80
2019-01-29T17:05:29.822Z,20.23
2019-01-29T17:07:58.410Z,19.40
2019-01-29T17:10:28.510Z,15.47
2019-01-29T17:12:56.795Z,16.20
2019-01-29T17:15:29.957Z,21.70
2019-01-29T17:17:58.953Z,22.13
2019-01-29T17:20:34.946Z,22.13
2019-01-29T17:23:03.757Z,21.20
2019-01-29T17:25:32.021Z,26.00
2019-01-29T17:28:00.297Z,18.40
2019-01-29T17:30:30.939Z,20.57
2019-01-29T17:32:59.235Z,24.15
2019-01-29T17:35:27.670Z,21.30
2019-01-29T17:37:55.999Z,19.20
2019-01-29T17:40:24.537Z,24.33
2019-01-29T17:42:52.821Z,24.63
2019-01-29T17:45:35.819Z,25.17
2019-01-29T17:48:04.714Z,27.50
2019-01-29T17:50:36.031Z,22.77
2019-01-29T17:53:04.460Z,31.13
2019-01-29T17:55:33.862Z,30.12
2019-01-29T17:58:02.130Z,24.70
2019-01-29T18:00:32.421Z,20.97
2019-01-29T18:03:00.705Z,25.03
2019-01-29T18:05:28.980Z,21.10
2019-01-29T18:07:57.326Z,26.25
2019-01-29T18:10:25.907Z,26.82
2019-01-29T18:12:54.136Z,24.50
2019-01-29T18:15:27.644Z,30.47
2019-01-29T18:17:56.032Z,25.57
2019-01-29T18:20:24.341Z,32.40
2019-01-29T18:22:52.610Z,31.20
2019-01-29T18:25:21.106Z,25.80
2019-01-29T18:27:49.467Z,25.75
2019-01-29T18:30:23.405Z,33.00
2019-01-29T18:32:51.761Z,25.65
2019-01-29T18:35:20.057Z,26.90
2019-01-29T18:37:48.385Z,29.10
2019-01-29T18:40:19.704Z,22.00
2019-01-29T18:42:47.983Z,23.63
2019-01-29T18:45:16.312Z,30.10
2019-01-29T18:47:44.570Z,31.33
2019-01-29T18:50:15.548Z,25.15
2019-01-29T18:52:43.831Z,32.83
2019-01-29T18:55:12.694Z,29.15
2019-01-29T18:57:40.967Z,28.05
2019-01-29T19:00:23.456Z,28.38
2019-01-29T19:02:51.812Z,28.83
2019-01-29T19:05:21.713Z,29.90
2019-01-29T19:07:49.969Z,29.37
2019-01-29T19:10:19.895Z,32.53
2019-01-29T19:12:49.805Z,37.17
2019-01-29T19:15:21.254Z,26.97
2019-01-29T19:17:49.755Z,38.93
2019-01-29T19:20:20.680Z,42.90
2019-01-29T19:22:50.606Z,31.30
2019-01-29T19:25:18.872Z,49.88
2019-01-29T19:27:47.175Z,43.87
2019-01-29T19:30:21.456Z,52.07
2019-01-29T19:32:49.742Z,36.10
2019-01-29T19:35:18.020Z,29.25
2019-01-29T19:37:46.542Z,38.73
2019-01-29T19:40:17.679Z,39.97
2019-01-29T19:42:50.318Z,31.50
2019-01-29T19:45:20.901Z,31.87
2019-01-29T19:47:50.198Z,30.70
2019-01-29T19:50:21.503Z,32.37
2019-01-29T19:52:53.332Z,31.80
2019-01-29T19:55:26.823Z,29.60
2019-01-29T19:57:55.090Z,35.83
2019-01-29T20:00:26.260Z,27.73
2019-01-29T20:02:56.885Z,35.33
2019-01-29T20:05:25.211Z,39.55
2019-01-29T20:07:57.666Z,32.65
2019-01-29T20:10:26.005Z,37.20
2019-01-29T20:12:54.352Z,31.80
2019-01-29T20:15:24.484Z,31.77
2019-01-29T20:17:54.249Z,39.07
2019-01-29T20:20:26.609Z,42.03
2019-01-29T20:22:56.617Z,38.67
2019-01-29T20:25:27.540Z,35.67
2019-01-29T20:27:56.061Z,39.70
2019-01-29T20:30:27.037Z,38.90
2019-01-29T20:32:55.380Z,35.13
2019-01-29T20:35:23.643Z,36.20
2019-01-29T20:37:52.574Z,37.87
2019-01-29T20:40:22.573Z,29.90
2019-01-29T20:42:52.610Z,34.30
2019-01-29T20:45:22.358Z,41.20
2019-01-29T20:47:52.653Z,42.03
2019-01-29T20:50:29.162Z,39.23
2019-01-29T20:52:57.747Z,32.47
2019-01-29T20:55:25.952Z,34.93
2019-01-29T20:57:54.235Z,38.80
2019-01-29T21:00:30.855Z,36.68
2019-01-29T21:02:59.130Z,34.07
2019-01-29T21:05:29.050Z,40.90
2019-01-29T21:07:57.389Z,30.93
2019-01-29T21:10:25.812Z,38.97
2019-01-29T21:12:54.086Z,40.17
2019-01-29T21:15:24.403Z,35.33
2019-01-29T21:17:52.801Z,44.80
2019-01-29T21:20:25.914Z,38.15
2019-01-29T21:22:54.179Z,37.97
2019-01-29T21:25:22.459Z,38.13
2019-01-29T21:27:50.732Z,38.88
2019-01-29T21:30:22.177Z,41.10
2019-01-29T21:32:50.431Z,43.07
2019-01-29T21:35:19.701Z,42.37
2019-01-29T21:37:47.975Z,44.10
2019-01-29T21:40:17.416Z,41.70
2019-01-29T21:42:45.702Z,45.80
2019-01-29T21:45:18.434Z,42.20
2019-01-29T21:47:47.643Z,43.15
2019-01-29T21:50:19.110Z,36.93
2019-01-29T21:52:47.378Z,48.27
2019-01-29T21:55:16.284Z,42.27
2019-01-29T21:57:44.580Z,42.93
2019-01-29T22:00:21.765Z,43.07
2019-01-29T22:02:50.045Z,48.97
2019-01-29T22:05:18.319Z,47.37
2019-01-29T22:07:46.602Z,43.57
2019-01-29T22:10:15.995Z,44.97
2019-01-29T22:12:44.437Z,46.43
2019-01-29T22:15:15.130Z,46.70
2019-01-29T22:17:43.857Z,45.23
2019-01-29T22:20:15.247Z,42.10
2019-01-29T22:22:43.533Z,49.00
2019-01-29T22:25:14.067Z,38.20
2019-01-29T22:27:42.349Z,42.07
2019-01-29T22:30:13.913Z,43.60
2019-01-29T22:32:42.640Z,40.35
2019-01-29T22:35:10.901Z,38.95
2019-01-29T22:37:39.169Z,44.63
2019-01-29T22:40:21.328Z,43.42
2019-01-29T22:42:49.608Z,48.08
2019-01-29T22:45:18.413Z,42.03
2019-01-29T22:47:46.751Z,47.83
2019-01-29T22:50:29.240Z,45.10
2019-01-29T22:52:57.501Z,43.70
2019-01-29T22:55:25.858Z,44.40
2019-01-29T22:57:54.156Z,38.77
2019-01-29T23:00:56.626Z,41.67
2019-01-29T23:03:28.058Z,45.98
2019-01-29T23:06:02.388Z,52.27
2019-01-29T23:08:30.660Z,39.13
2019-01-29T23:10:58.934Z,47.00
2019-01-29T23:13:27.213Z,43.03
2019-01-29T23:15:55.473Z,45.48
2019-01-29T23:18:23.745Z,42.35
2019-01-29T23:20:52.015Z,44.80
2019-01-29T23:23:22.214Z,46.63
2019-01-29T23:25:50.346Z,39.73
2019-01-29T23:28:18.613Z,42.57
2019-01-29T23:30:46.893Z,47.62
2019-01-29T23:33:15.162Z,38.75
2019-01-29T23:35:43.442Z,46.95
2019-01-29T23:38:11.718Z,36.65
2019-01-29T23:40:39.981Z,37.67
2019-01-29T23:43:08.338Z,40.57
2019-01-29T23:45:36.593Z,47.53
2019-01-29T23:48:04.941Z,43.77
2019-01-29T23:50:33.216Z,49.27
2019-01-29T23:53:01.499Z,43.15
2019-01-29T23:55:29.780Z,43.60
2019-01-29T23:57:58.036Z,41.20
